createdAt,value
2017-09-04T00:01:01.843Z,99.79
2017-09-04T00:02:07.888Z,99.80
2017-09-04T00:03:14.122Z,99.39
2017-09-04T00:04:21.252Z,98.13
2017-09-04T00:05:27.430Z,98.44
2017-09-04T00:06:33.670Z,98.57
2017-09-04T00:07:39.951Z,98.20
2017-09-04T00:08:46.134Z,98.25
2017-09-04T00:09:52.373Z,98.16
2017-09-04T00:11:00.016Z,98.70
2017-09-04T00:12:07.174Z,99.65
2017-09-04T00:13:13.463Z,99.79
2017-09-04T00:14:20.206Z,100.00
2017-09-04T00:15:27.334Z,100.00
2017-09-04T00:16:34.074Z,100.00
2017-09-04T00:17:41.674Z,100.00
2017-09-04T00:18:47.779Z,100.00
2017-09-04T00:19:54.580Z,100.00
2017-09-04T00:21:01.351Z,100.00
2017-09-04T00:22:07.937Z,100.00
2017-09-04T00:23:14.976Z,99.68
2017-09-04T00:24:21.615Z,98.86
2017-09-04T00:25:28.949Z,98.40
2017-09-04T00:26:35.358Z,98.82
2017-09-04T00:27:42.644Z,98.67
2017-09-04T00:28:50.155Z,98.85
2017-09-04T00:29:56.655Z,98.79
2017-09-04T00:31:03.156Z,98.77
2017-09-04T00:32:10.092Z,98.87
2017-09-04T00:33:16.563Z,99.09
2017-09-04T00:34:23.564Z,99.62
2017-09-04T00:35:29.952Z,99.50
2017-09-04T00:36:36.763Z,99.50
2017-09-04T00:37:43.599Z,99.05
2017-09-04T00:38:49.400Z,99.59
2017-09-04T00:39:55.818Z,99.79
2017-09-04T00:41:02.027Z,100.00
2017-09-04T00:42:08.215Z,100.00
2017-09-04T00:43:14.414Z,99.98
2017-09-04T00:44:20.795Z,100.00
2017-09-04T00:45:27.175Z,100.00
2017-09-04T00:46:33.331Z,100.00
2017-09-04T00:47:39.513Z,100.00
2017-09-04T00:48:45.988Z,100.00
2017-09-04T00:49:52.282Z,99.83
2017-09-04T00:50:58.484Z,99.61
2017-09-04T00:52:05.149Z,99.60
2017-09-04T00:53:11.957Z,100.00
2017-09-04T00:54:19.302Z,100.00
2017-09-04T00:55:25.411Z,100.00
2017-09-04T00:56:32.948Z,99.98
2017-09-04T00:57:39.358Z,99.94
2017-09-04T00:58:45.778Z,100.00
2017-09-04T00:59:52.316Z,100.00
2017-09-04T01:00:58.663Z,100.00
2017-09-04T01:02:05.848Z,100.00
2017-09-04T01:03:12.156Z,100.00
2017-09-04T01:04:18.988Z,100.00
2017-09-04T01:05:25.493Z,100.00
2017-09-04T01:06:31.084Z,100.00
2017-09-04T01:07:37.186Z,100.00
2017-09-04T01:08:43.947Z,100.00
2017-09-04T01:09:51.318Z,100.00
2017-09-04T01:10:58.612Z,99.85
2017-09-04T01:12:06.123Z,98.89
2017-09-04T01:13:12.012Z,98.63
2017-09-04T01:14:18.634Z,98.51
2017-09-04T01:15:25.455Z,98.45
2017-09-04T01:16:32.705Z,98.95
2017-09-04T01:17:38.896Z,98.63
2017-09-04T01:18:45.989Z,98.21
2017-09-04T01:19:51.829Z,97.89
2017-09-04T01:20:58.163Z,97.78
2017-09-04T01:22:04.341Z,97.47
2017-09-04T01:23:12.059Z,97.86
2017-09-04T01:24:18.710Z,98.18
2017-09-04T01:25:24.836Z,98.66
2017-09-04T01:26:31.250Z,98.81
2017-09-04T01:27:37.477Z,98.56
2017-09-04T01:28:44.830Z,98.94
2017-09-04T01:29:51.022Z,99.24
2017-09-04T01:30:58.056Z,100.00
2017-09-04T01:32:04.199Z,100.00
2017-09-04T01:33:10.553Z,100.00
2017-09-04T01:34:17.486Z,100.00
2017-09-04T01:35:24.246Z,100.00
2017-09-04T01:36:30.926Z,100.00
2017-09-04T01:37:37.303Z,100.00
2017-09-04T01:38:44.262Z,100.00
2017-09-04T01:39:50.876Z,100.00
2017-09-04T01:40:57.169Z,100.00
2017-09-04T01:42:03.254Z,100.00
2017-09-04T01:43:11.249Z,100.00
2017-09-04T01:44:17.358Z,99.87
2017-09-04T01:45:23.611Z,99.82
2017-09-04T01:46:30.063Z,99.12
2017-09-04T01:47:36.303Z,98.60
2017-09-04T01:48:42.429Z,98.01
2017-09-04T01:49:48.743Z,97.76
2017-09-04T01:50:55.003Z,97.56
2017-09-04T01:52:01.368Z,97.60
2017-09-04T01:53:08.465Z,97.70
2017-09-04T01:54:14.673Z,97.87
2017-09-04T01:55:20.852Z,99.00
2017-09-04T01:56:27.281Z,99.61
2017-09-04T01:57:33.365Z,100.00
2017-09-04T01:58:39.599Z,99.84
2017-09-04T01:59:46.811Z,99.72
2017-09-04T02:00:53.161Z,99.76
2017-09-04T02:02:00.124Z,99.83
2017-09-04T02:03:07.815Z,99.82
2017-09-04T02:04:15.134Z,99.38
2017-09-04T02:05:21.548Z,98.95
2017-09-04T02:06:27.772Z,99.09
2017-09-04T02:07:34.031Z,100.00
2017-09-04T02:08:40.321Z,100.00
2017-09-04T02:09:46.878Z,100.00
2017-09-04T02:10:53.924Z,100.00
2017-09-04T02:12:00.468Z,100.00
2017-09-04T02:13:06.521Z,100.00
2017-09-04T02:14:12.739Z,100.00
2017-09-04T02:15:19.001Z,100.00
2017-09-04T02:16:25.192Z,100.00
2017-09-04T02:17:31.821Z,100.00
2017-09-04T02:18:38.611Z,100.00
2017-09-04T02:19:45.464Z,100.00
2017-09-04T02:20:51.859Z,100.00
2017-09-04T02:21:58.676Z,100.00
2017-09-04T02:23:04.923Z,100.00
2017-09-04T02:24:11.851Z,100.00
2017-09-04T02:25:18.158Z,100.00
2017-09-04T02:26:24.436Z,99.46
2017-09-04T02:27:30.781Z,99.18
2017-09-04T02:28:37.200Z,98.61
2017-09-04T02:29:43.681Z,98.58
2017-09-04T02:30:51.650Z,99.43
2017-09-04T02:31:57.857Z,99.30
2017-09-04T02:33:04.789Z,99.28
2017-09-04T02:34:11.231Z,99.14
2017-09-04T02:35:17.336Z,99.30
2017-09-04T02:36:24.080Z,99.79
2017-09-04T02:37:30.242Z,100.00
2017-09-04T02:38:36.466Z,100.00
2017-09-04T02:39:42.778Z,100.00
2017-09-04T02:40:49.122Z,99.90
2017-09-04T02:41:55.258Z,99.96
2017-09-04T02:43:02.363Z,100.00
2017-09-04T02:44:08.644Z,100.00
2017-09-04T02:45:15.869Z,100.00
2017-09-04T02:46:22.940Z,100.00
2017-09-04T02:47:29.242Z,100.00
2017-09-04T02:48:35.603Z,100.00
2017-09-04T02:49:41.824Z,100.00
2017-09-04T02:50:48.548Z,100.00
2017-09-04T02:51:54.612Z,100.00
2017-09-04T02:53:01.696Z,100.00
2017-09-04T02:54:08.994Z,100.00
2017-09-04T02:55:15.176Z,100.00
2017-09-04T02:56:22.090Z,99.98
2017-09-04T02:57:28.200Z,99.64
2017-09-04T02:58:34.374Z,99.05
2017-09-04T02:59:41.219Z,99.11
2017-09-04T03:00:47.376Z,99.58
2017-09-04T03:01:53.817Z,99.77
2017-09-04T03:03:00.784Z,99.88
2017-09-04T03:04:07.779Z,99.83
2017-09-04T03:05:15.375Z,99.61
2017-09-04T03:06:22.236Z,99.79
2017-09-04T03:07:28.172Z,99.75
2017-09-04T03:08:34.352Z,99.90
2017-09-04T03:09:40.562Z,99.53
2017-09-04T03:10:46.986Z,98.97
2017-09-04T03:11:53.373Z,98.37
2017-09-04T03:12:59.014Z,98.31
2017-09-04T03:14:05.556Z,98.77
2017-09-04T03:15:12.025Z,99.08
2017-09-04T03:16:20.354Z,99.13
2017-09-04T03:17:25.860Z,99.52
2017-09-04T03:18:32.160Z,99.15
2017-09-04T03:19:39.702Z,98.63
2017-09-04T03:20:45.219Z,98.83
2017-09-04T03:21:51.135Z,98.85
2017-09-04T03:22:57.409Z,98.62
2017-09-04T03:24:03.212Z,98.69
2017-09-04T03:25:08.713Z,98.71
2017-09-04T03:26:14.251Z,98.84
2017-09-04T03:27:20.331Z,98.94
2017-09-04T03:28:25.800Z,99.57
2017-09-04T03:29:31.460Z,99.63
2017-09-04T03:30:36.681Z,99.99
2017-09-04T03:31:42.145Z,100.00
2017-09-04T03:32:47.330Z,100.00
2017-09-04T03:33:53.592Z,100.00
2017-09-04T03:34:59.698Z,100.00
2017-09-04T03:36:06.122Z,100.00
2017-09-04T03:37:12.729Z,100.00
2017-09-04T03:38:18.822Z,100.00
2017-09-04T03:39:24.930Z,100.00
2017-09-04T03:40:30.474Z,100.00
2017-09-04T03:41:35.935Z,100.00
2017-09-04T03:42:41.303Z,100.00
2017-09-04T03:43:46.700Z,100.00
2017-09-04T03:44:52.570Z,100.00
2017-09-04T03:45:58.009Z,100.00
2017-09-04T03:47:04.266Z,100.00
2017-09-04T03:48:10.978Z,100.00
2017-09-04T03:49:16.640Z,100.00
2017-09-04T03:50:22.027Z,100.00
2017-09-04T03:51:27.342Z,100.00
2017-09-04T03:52:32.796Z,100.00
2017-09-04T03:53:39.739Z,100.00
2017-09-04T03:54:45.703Z,100.00
2017-09-04T03:55:52.475Z,100.00
2017-09-04T03:56:58.509Z,100.00
2017-09-04T03:58:04.164Z,100.00
2017-09-04T03:59:10.492Z,100.00
2017-09-04T04:00:16.270Z,100.00
2017-09-04T04:01:22.406Z,100.00
2017-09-04T04:02:28.644Z,100.00
2017-09-04T04:03:34.592Z,100.00
2017-09-04T04:04:39.775Z,100.00
2017-09-04T04:05:45.073Z,100.00
2017-09-04T04:06:51.063Z,99.44
2017-09-04T04:07:57.393Z,99.40
2017-09-04T04:09:03.087Z,99.92
2017-09-04T04:10:08.660Z,100.00
2017-09-04T04:11:14.750Z,100.00
2017-09-04T04:12:21.027Z,100.00
2017-09-04T04:13:28.220Z,100.00
2017-09-04T04:14:35.262Z,100.00
2017-09-04T04:15:43.332Z,100.00
2017-09-04T04:16:49.612Z,100.00
2017-09-04T04:17:56.179Z,100.00
2017-09-04T04:19:02.862Z,100.00
2017-09-04T04:20:09.085Z,100.00
2017-09-04T04:21:16.008Z,100.00
2017-09-04T04:22:25.272Z,100.00
2017-09-04T04:23:31.082Z,100.00
2017-09-04T04:24:36.984Z,100.00
2017-09-04T04:25:43.281Z,100.00
2017-09-04T04:26:50.431Z,100.00
2017-09-04T04:27:56.611Z,100.00
2017-09-04T04:29:03.154Z,100.00
2017-09-04T04:30:09.699Z,100.00
2017-09-04T04:31:15.671Z,100.00
2017-09-04T04:32:22.907Z,100.00
2017-09-04T04:33:29.123Z,100.00
2017-09-04T04:34:35.307Z,100.00
2017-09-04T04:35:42.045Z,100.00
2017-09-04T04:36:48.344Z,100.00
2017-09-04T04:37:54.788Z,100.00
2017-09-04T04:39:01.275Z,100.00
2017-09-04T04:40:08.004Z,100.00
2017-09-04T04:41:14.771Z,100.00
2017-09-04T04:42:21.861Z,100.00
2017-09-04T04:43:28.791Z,100.00
2017-09-04T04:44:35.199Z,100.00
2017-09-04T04:45:41.360Z,100.00
2017-09-04T04:46:47.734Z,100.00
2017-09-04T04:47:54.347Z,100.00
2017-09-04T04:49:02.950Z,99.49
2017-09-04T04:50:10.139Z,99.00
2017-09-04T04:51:16.642Z,99.17
2017-09-04T04:52:22.991Z,99.38
2017-09-04T04:53:30.601Z,99.90
2017-09-04T04:54:37.027Z,100.00
2017-09-04T04:55:44.153Z,100.00
2017-09-04T04:56:50.459Z,100.00
2017-09-04T04:57:56.665Z,100.00
2017-09-04T04:59:03.919Z,100.00
2017-09-04T05:00:10.116Z,99.91
2017-09-04T05:01:17.551Z,99.49
2017-09-04T05:02:24.897Z,99.12
2017-09-04T05:03:32.258Z,99.17
2017-09-04T05:04:38.428Z,99.80
2017-09-04T05:05:44.694Z,100.00
2017-09-04T05:06:50.849Z,100.00
2017-09-04T05:07:57.261Z,100.00
2017-09-04T05:09:04.571Z,100.00
2017-09-04T05:10:12.023Z,100.00
2017-09-04T05:11:18.250Z,100.00
2017-09-04T05:12:25.194Z,100.00
2017-09-04T05:13:31.430Z,100.00
2017-09-04T05:14:38.484Z,100.00
2017-09-04T05:15:45.323Z,100.00
2017-09-04T05:16:51.541Z,100.00
2017-09-04T05:17:57.764Z,100.00
2017-09-04T05:19:03.966Z,100.00
2017-09-04T05:20:10.896Z,100.00
2017-09-04T05:21:17.019Z,100.00
2017-09-04T05:22:23.149Z,100.00
2017-09-04T05:23:29.416Z,100.00
2017-09-04T05:24:35.612Z,100.00
2017-09-04T05:25:42.454Z,100.00
2017-09-04T05:26:49.584Z,100.00
2017-09-04T05:27:56.781Z,100.00
2017-09-04T05:29:04.047Z,100.00
2017-09-04T05:30:10.220Z,100.00
2017-09-04T05:31:16.349Z,100.00
2017-09-04T05:32:23.370Z,100.00
2017-09-04T05:33:30.185Z,100.00
2017-09-04T05:34:36.403Z,100.00
2017-09-04T05:35:43.535Z,100.00
2017-09-04T05:36:51.089Z,100.00
2017-09-04T05:37:57.307Z,100.00
2017-09-04T05:39:04.538Z,100.00
2017-09-04T05:40:10.727Z,100.00
2017-09-04T05:41:16.918Z,100.00
2017-09-04T05:42:23.156Z,100.00
2017-09-04T05:43:30.812Z,100.00
2017-09-04T05:44:37.150Z,100.00
2017-09-04T05:45:43.415Z,100.00
2017-09-04T05:46:49.865Z,99.91
2017-09-04T05:47:56.024Z,99.74
2017-09-04T05:49:02.932Z,99.35
2017-09-04T05:50:10.914Z,99.05
2017-09-04T05:51:16.986Z,98.38
2017-09-04T05:52:23.095Z,98.20
2017-09-04T05:53:29.357Z,97.51
2017-09-04T05:54:35.775Z,98.19
2017-09-04T05:55:41.837Z,97.81
2017-09-04T05:56:48.056Z,97.14
2017-09-04T05:57:54.913Z,97.28
2017-09-04T05:59:01.175Z,97.14
2017-09-04T06:00:07.150Z,96.64
2017-09-04T06:01:13.232Z,95.87
2017-09-04T06:02:19.432Z,95.76
2017-09-04T06:03:25.857Z,95.37
2017-09-04T06:04:32.778Z,95.11
2017-09-04T06:05:39.891Z,94.73
2017-09-04T06:06:46.120Z,94.19
2017-09-04T06:07:52.325Z,94.46
2017-09-04T06:08:59.580Z,94.03
2017-09-04T06:10:05.768Z,93.30
2017-09-04T06:20:41.570Z,95.25
2017-09-04T06:21:47.630Z,94.15
2017-09-04T06:22:53.709Z,93.49
2017-09-04T06:24:01.527Z,93.10
2017-09-04T06:25:10.465Z,92.83
2017-09-04T06:26:25.047Z,92.49
2017-09-04T06:27:38.423Z,91.40
2017-09-04T06:28:51.254Z,90.64
2017-09-04T06:30:07.932Z,91.05
2017-09-04T06:31:21.166Z,91.05
2017-09-04T06:32:28.848Z,90.15
2017-09-04T06:33:37.409Z,90.26
2017-09-04T06:34:46.026Z,89.92
2017-09-04T06:35:53.835Z,90.42
2017-09-04T06:37:02.366Z,90.28
2017-09-04T06:38:11.199Z,90.15
2017-09-04T06:39:17.780Z,90.26
2017-09-04T06:40:27.345Z,89.82
2017-09-04T06:41:35.909Z,89.50
2017-09-04T06:42:45.335Z,89.51
2017-09-04T06:43:53.935Z,88.75
2017-09-04T06:45:01.144Z,88.05
2017-09-04T06:46:07.319Z,88.39
2017-09-04T06:47:13.495Z,87.99
2017-09-04T06:48:19.610Z,88.11
2017-09-04T06:49:25.502Z,87.56
2017-09-04T06:50:34.114Z,86.88
2017-09-04T06:51:40.854Z,86.70
2017-09-04T06:52:47.023Z,87.38
2017-09-04T06:53:53.154Z,87.14
2017-09-04T06:54:59.042Z,86.68
2017-09-04T06:56:05.103Z,85.66
2017-09-04T06:57:11.157Z,85.69
2017-09-04T06:58:17.203Z,85.92
2017-09-04T06:59:23.925Z,85.21
2017-09-04T07:00:29.821Z,84.92
2017-09-04T07:01:35.936Z,84.88
2017-09-04T07:02:42.282Z,84.28
2017-09-04T07:03:49.380Z,83.77
2017-09-04T07:04:55.543Z,83.34
2017-09-04T07:06:03.438Z,84.53
2017-09-04T07:07:10.151Z,84.30
2017-09-04T07:08:16.180Z,84.17
2017-09-04T07:09:22.470Z,85.01
2017-09-04T07:10:28.539Z,84.14
2017-09-04T07:11:34.605Z,84.54
2017-09-04T07:12:40.696Z,84.19
2017-09-04T07:13:47.136Z,84.00
2017-09-04T07:14:54.113Z,84.40
2017-09-04T07:16:00.185Z,83.06
2017-09-04T07:17:06.245Z,84.10
2017-09-04T07:18:12.297Z,83.43
2017-09-04T07:19:18.386Z,84.71
2017-09-04T07:20:24.439Z,84.00
2017-09-04T07:21:31.288Z,83.62
2017-09-04T07:22:37.343Z,82.31
2017-09-04T07:23:43.382Z,82.33
2017-09-04T07:24:49.816Z,82.59
2017-09-04T07:25:55.887Z,82.62
2017-09-04T07:27:01.960Z,83.01
2017-09-04T07:28:08.333Z,81.69
2017-09-04T07:29:14.522Z,81.55
2017-09-04T07:30:20.588Z,81.05
2017-09-04T07:31:26.641Z,80.84
2017-09-04T07:32:33.730Z,80.92
2017-09-04T07:33:39.853Z,80.52
2017-09-04T07:34:46.710Z,80.77
2017-09-04T07:35:52.774Z,80.17
2017-09-04T07:36:58.852Z,79.87
2017-09-04T07:38:04.919Z,80.64
2017-09-04T07:39:10.969Z,80.00
2017-09-04T07:40:16.969Z,79.34
2017-09-04T07:41:22.996Z,79.37
2017-09-04T07:42:28.715Z,79.85
2017-09-04T07:43:34.863Z,78.37
2017-09-04T07:44:40.885Z,79.33
2017-09-04T07:45:46.907Z,79.54
2017-09-04T07:46:52.966Z,79.66
2017-09-04T07:47:59.004Z,77.91
2017-09-04T07:49:05.115Z,77.65
2017-09-04T07:50:11.174Z,77.76
2017-09-04T07:51:16.930Z,77.22
2017-09-04T07:52:23.090Z,76.27
2017-09-04T07:53:29.138Z,76.67
2017-09-04T07:54:35.262Z,77.61
2017-09-04T07:55:41.897Z,76.66
2017-09-04T07:56:47.932Z,77.41
2017-09-04T07:57:53.969Z,75.78
2017-09-04T07:58:59.997Z,75.85
2017-09-04T08:00:06.604Z,76.75
2017-09-04T08:01:12.709Z,75.67
2017-09-04T08:02:18.769Z,75.51
2017-09-04T08:03:24.794Z,74.93
2017-09-04T08:04:30.873Z,75.34
2017-09-04T08:05:36.970Z,75.46
2017-09-04T08:06:44.446Z,74.67
2017-09-04T08:07:50.490Z,74.44
2017-09-04T08:08:56.585Z,73.46
2017-09-04T08:10:02.624Z,74.73
2017-09-04T08:11:08.693Z,73.79
2017-09-04T08:12:14.772Z,74.35
2017-09-04T08:13:20.813Z,73.69
2017-09-04T08:14:26.868Z,71.79
2017-09-04T08:15:32.899Z,72.63
2017-09-04T08:16:39.007Z,73.81
2017-09-04T08:17:45.041Z,70.56
2017-09-04T08:18:51.056Z,70.00
2017-09-04T08:19:57.314Z,70.67
2017-09-04T08:21:03.380Z,66.22
2017-09-04T08:22:11.098Z,68.73
2017-09-04T08:23:17.797Z,68.21
2017-09-04T08:24:23.806Z,68.28
2017-09-04T08:25:29.838Z,67.63
2017-09-04T08:26:35.903Z,68.00
2017-09-04T08:27:42.022Z,67.64
2017-09-04T08:28:48.086Z,67.10
2017-09-04T08:29:54.901Z,68.15
2017-09-04T08:31:00.957Z,67.47
2017-09-04T08:32:07.072Z,66.24
2017-09-04T08:33:13.122Z,65.76
2017-09-04T08:34:19.159Z,66.45
2017-09-04T08:35:26.159Z,67.09
2017-09-04T08:36:32.826Z,64.74
2017-09-04T08:37:38.880Z,64.96
2017-09-04T08:38:45.894Z,65.06
2017-09-04T08:39:51.999Z,65.84
2017-09-04T08:40:58.046Z,64.27
2017-09-04T08:42:04.106Z,64.58
2017-09-04T08:43:10.206Z,64.76
2017-09-04T08:44:16.259Z,63.67
2017-09-04T08:45:22.289Z,64.06
2017-09-04T08:46:28.365Z,63.52
2017-09-04T08:47:34.794Z,62.43
2017-09-04T08:48:40.827Z,62.28
2017-09-04T08:49:47.142Z,63.75
2017-09-04T08:50:53.223Z,63.31
2017-09-04T08:51:59.531Z,62.56
2017-09-04T08:53:05.636Z,61.04
2017-09-04T08:54:12.055Z,61.61
2017-09-04T08:55:18.759Z,61.59
2017-09-04T08:56:24.837Z,63.08
2017-09-04T08:57:32.010Z,61.58
2017-09-04T08:58:38.042Z,60.65
2017-09-04T08:59:44.794Z,60.60
2017-09-04T09:00:51.201Z,58.88
2017-09-04T09:01:57.132Z,57.92
2017-09-04T09:03:02.962Z,58.31
2017-09-04T09:04:09.214Z,58.09
2017-09-04T09:05:15.234Z,58.71
2017-09-04T09:06:22.274Z,59.23
2017-09-04T09:07:28.328Z,58.01
2017-09-04T09:08:34.370Z,58.11
2017-09-04T09:09:40.239Z,57.51
2017-09-04T09:10:46.927Z,58.00
2017-09-04T09:11:54.054Z,56.98
2017-09-04T09:13:00.095Z,57.09
2017-09-04T09:14:06.134Z,57.99
2017-09-04T09:15:11.966Z,59.34
2017-09-04T09:16:18.002Z,57.70
2017-09-04T09:17:24.962Z,57.16
2017-09-04T09:18:31.781Z,59.79
2017-09-04T09:19:38.153Z,57.05
2017-09-04T09:20:44.278Z,56.21
2017-09-04T09:21:50.320Z,58.81
2017-09-04T09:22:56.228Z,57.56
2017-09-04T09:24:02.088Z,56.04
2017-09-04T09:25:08.022Z,59.49
2017-09-04T09:26:14.382Z,59.28
2017-09-04T09:27:20.842Z,58.64
2017-09-04T09:28:26.702Z,56.97
2017-09-04T09:29:32.544Z,57.29
2017-09-04T09:30:38.625Z,57.09
2017-09-04T09:31:44.498Z,57.28
2017-09-04T09:32:50.564Z,57.01
2017-09-04T09:33:56.876Z,55.06
2017-09-04T09:35:02.945Z,55.85
2017-09-04T09:36:08.979Z,55.31
2017-09-04T09:37:15.058Z,58.06
2017-09-04T09:38:21.318Z,56.03
2017-09-04T09:39:27.427Z,57.05
2017-09-04T09:40:33.518Z,55.17
2017-09-04T09:41:39.686Z,55.87
2017-09-04T09:42:46.472Z,54.11
2017-09-04T09:43:52.533Z,51.86
2017-09-04T09:44:58.892Z,53.34
2017-09-04T09:46:04.935Z,53.80
2017-09-04T09:47:10.981Z,55.02
2017-09-04T09:48:17.283Z,55.74
2017-09-04T09:49:23.390Z,52.02
2017-09-04T09:50:29.487Z,52.06
2017-09-04T09:51:35.399Z,52.56
2017-09-04T09:52:41.336Z,52.22
2017-09-04T09:53:47.244Z,51.68
2017-09-04T09:54:53.368Z,50.63
2017-09-04T09:55:59.246Z,54.15
2017-09-04T09:57:05.130Z,51.21
2017-09-04T09:58:11.810Z,50.53
2017-09-04T09:59:18.254Z,48.94
2017-09-04T10:00:24.122Z,51.46
2017-09-04T10:01:29.831Z,51.58
2017-09-04T10:02:35.926Z,50.52
2017-09-04T10:03:41.778Z,51.07
2017-09-04T10:04:47.629Z,52.74
2017-09-04T10:05:53.471Z,49.39
2017-09-04T10:06:59.342Z,50.07
2017-09-04T10:08:05.245Z,50.68
2017-09-04T10:09:11.746Z,48.88
2017-09-04T10:10:17.712Z,51.09
2017-09-04T10:11:23.578Z,49.58
2017-09-04T10:12:30.518Z,48.56
2017-09-04T10:13:37.002Z,50.42
2017-09-04T10:14:42.845Z,50.02
2017-09-04T10:15:48.918Z,49.66
2017-09-04T10:16:54.798Z,48.00
2017-09-04T10:18:01.162Z,47.41
2017-09-04T10:19:07.119Z,46.75
2017-09-04T10:20:12.951Z,49.45
2017-09-04T10:21:18.823Z,48.85
2017-09-04T10:22:24.683Z,48.67
2017-09-04T10:23:30.606Z,46.39
2017-09-04T10:24:36.511Z,48.90
2017-09-04T10:25:42.404Z,45.87
2017-09-04T10:26:48.265Z,46.82
2017-09-04T10:27:54.128Z,47.00
2017-09-04T10:29:00.061Z,47.02
2017-09-04T10:30:05.931Z,48.45
2017-09-04T10:31:12.724Z,44.49
2017-09-04T10:32:18.587Z,44.83
2017-09-04T10:33:24.671Z,45.66
2017-09-04T10:34:31.221Z,45.43
2017-09-04T10:35:37.704Z,43.91
2017-09-04T10:36:43.540Z,45.72
2017-09-04T10:37:50.313Z,45.08
2017-09-04T10:38:56.233Z,47.96
2017-09-04T10:40:02.147Z,45.52
2017-09-04T10:41:08.634Z,46.25
2017-09-04T10:42:14.508Z,46.08
2017-09-04T10:43:20.593Z,45.47
2017-09-04T10:44:26.436Z,44.57
2017-09-04T10:45:32.342Z,47.77
2017-09-04T10:46:38.205Z,45.75
2017-09-04T10:47:45.230Z,44.39
2017-09-04T10:48:51.144Z,46.12
2017-09-04T10:49:56.992Z,45.36
2017-09-04T10:51:03.177Z,45.86
2017-09-04T10:52:09.050Z,46.81
2017-09-04T10:53:14.887Z,46.90
2017-09-04T10:54:20.758Z,47.49
2017-09-04T10:55:26.422Z,47.44
2017-09-04T10:56:32.524Z,47.09
2017-09-04T10:57:38.570Z,48.27
2017-09-04T10:58:44.604Z,46.62
2017-09-04T10:59:50.456Z,48.24
2017-09-04T11:00:56.510Z,49.29
2017-09-04T11:02:02.596Z,50.02
2017-09-04T11:03:09.360Z,52.88
2017-09-04T11:04:15.230Z,54.48
2017-09-04T11:05:21.342Z,56.30
2017-09-04T11:06:27.407Z,56.77
2017-09-04T11:07:33.486Z,56.27
2017-09-04T11:08:41.174Z,54.82
2017-09-04T11:09:47.022Z,55.38
2017-09-04T11:10:52.894Z,54.01
2017-09-04T11:11:59.393Z,54.61
2017-09-04T11:13:05.324Z,55.81
2017-09-04T11:14:11.556Z,54.42
2017-09-04T11:15:17.425Z,55.82
2017-09-04T11:16:23.261Z,56.54
2017-09-04T11:17:30.281Z,57.69
2017-09-04T11:18:36.226Z,59.61
2017-09-04T11:19:43.078Z,60.64
2017-09-04T11:20:48.963Z,62.15
2017-09-04T11:21:54.871Z,61.50
2017-09-04T11:23:00.703Z,62.67
2017-09-04T11:24:06.920Z,63.31
2017-09-04T11:25:13.419Z,62.78
2017-09-04T11:26:19.265Z,64.08
2017-09-04T11:27:25.149Z,64.89
2017-09-04T11:28:31.019Z,65.79
2017-09-04T11:29:37.166Z,63.88
2017-09-04T11:30:43.045Z,63.21
2017-09-04T11:31:48.890Z,62.29
2017-09-04T11:32:54.737Z,59.22
2017-09-04T11:34:00.600Z,59.99
2017-09-04T11:35:07.253Z,55.66
2017-09-04T11:36:13.099Z,57.40
2017-09-04T11:37:19.047Z,53.97
2017-09-04T11:38:25.093Z,51.02
2017-09-04T11:39:31.762Z,54.74
2017-09-04T11:40:37.851Z,54.18
2017-09-04T11:41:43.898Z,53.11
2017-09-04T11:42:49.935Z,52.23
2017-09-04T11:43:56.397Z,53.71
2017-09-04T11:45:02.450Z,54.28
2017-09-04T11:46:08.526Z,53.08
2017-09-04T11:47:14.547Z,51.40
2017-09-04T11:48:20.568Z,47.64
2017-09-04T11:49:26.630Z,49.86
2017-09-04T11:50:32.691Z,49.00
2017-09-04T11:51:38.582Z,49.02
2017-09-04T11:52:45.560Z,49.58
2017-09-04T11:53:51.589Z,50.23
2017-09-04T11:54:57.631Z,49.25
2017-09-04T11:56:03.662Z,47.50
2017-09-04T11:57:09.520Z,49.33
2017-09-04T11:58:15.646Z,48.75
2017-09-04T11:59:21.680Z,47.29
2017-09-04T12:00:29.112Z,47.84
2017-09-04T12:01:35.151Z,47.11
2017-09-04T12:02:41.255Z,47.61
2017-09-04T12:03:47.339Z,47.92
2017-09-04T12:04:53.424Z,47.03
2017-09-04T12:06:00.187Z,46.09
2017-09-04T12:07:06.055Z,46.62
2017-09-04T12:08:12.166Z,46.28
2017-09-04T12:09:18.296Z,45.87
2017-09-04T12:10:24.201Z,45.18
2017-09-04T12:11:30.065Z,43.80
2017-09-04T12:12:36.216Z,42.64
2017-09-04T12:13:42.399Z,43.60
2017-09-04T12:14:48.286Z,42.93
2017-09-04T12:15:54.347Z,41.00
2017-09-04T12:17:00.203Z,44.37
2017-09-04T12:18:07.455Z,42.12
2017-09-04T12:19:13.708Z,41.55
2017-09-04T12:20:19.570Z,40.79
2017-09-04T12:21:25.416Z,42.42
2017-09-04T12:22:31.265Z,42.38
2017-09-04T12:23:38.156Z,41.90
2017-09-04T12:24:44.968Z,43.18
2017-09-04T12:25:51.506Z,42.46
2017-09-04T12:26:57.540Z,41.71
2017-09-04T12:28:03.588Z,43.73
2017-09-04T12:29:10.293Z,44.21
2017-09-04T12:30:16.420Z,43.52
2017-09-04T12:31:22.821Z,41.45
2017-09-04T12:32:28.841Z,42.80
2017-09-04T12:33:34.874Z,43.83
2017-09-04T12:34:41.571Z,40.92
2017-09-04T12:35:49.166Z,42.87
2017-09-04T12:36:55.274Z,42.96
2017-09-04T12:38:01.329Z,43.86
2017-09-04T12:39:07.483Z,42.80
2017-09-04T12:40:14.384Z,43.91
2017-09-04T12:41:20.475Z,41.75
2017-09-04T12:42:26.526Z,41.38
2017-09-04T12:43:32.594Z,43.46
2017-09-04T12:44:38.670Z,43.61
2017-09-04T12:45:44.751Z,44.60
2017-09-04T12:46:50.653Z,43.64
2017-09-04T12:47:56.946Z,44.63
2017-09-04T12:49:02.853Z,43.79
2017-09-04T12:50:08.911Z,44.15
2017-09-04T12:51:15.035Z,44.43
2017-09-04T12:52:21.160Z,43.70
2017-09-04T12:53:27.239Z,43.88
2017-09-04T12:54:33.114Z,43.12
2017-09-04T12:55:39.234Z,44.31
2017-09-04T12:56:45.335Z,44.03
2017-09-04T12:57:51.370Z,45.67
2017-09-04T12:58:57.416Z,46.15
2017-09-04T13:00:03.495Z,46.48
2017-09-04T13:01:09.578Z,46.64
2017-09-04T13:02:15.798Z,47.76
2017-09-04T13:03:22.465Z,48.24
2017-09-04T13:04:28.492Z,48.55
2017-09-04T13:05:34.350Z,49.02
2017-09-04T13:06:41.088Z,47.97
2017-09-04T13:07:46.993Z,48.60
2017-09-04T13:08:53.076Z,49.40
2017-09-04T13:09:58.926Z,48.73
2017-09-04T13:11:15.421Z,47.65
2017-09-04T13:12:22.251Z,48.66
2017-09-04T13:13:30.681Z,48.65
2017-09-04T13:14:42.362Z,48.61
2017-09-04T13:15:53.790Z,48.50
2017-09-04T13:17:05.341Z,49.16
2017-09-04T13:18:16.818Z,48.52
2017-09-04T13:19:40.631Z,49.44
2017-09-04T13:21:04.375Z,48.15
2017-09-04T13:22:16.085Z,48.09
2017-09-04T13:23:27.480Z,47.18
2017-09-04T13:24:49.374Z,47.03
2017-09-04T13:26:13.185Z,47.10
2017-09-04T13:27:24.801Z,46.81
2017-09-04T13:28:36.349Z,47.48
2017-09-04T13:29:59.832Z,47.38
2017-09-04T13:31:36.955Z,46.04
2017-09-04T13:33:14.883Z,47.53
2017-09-04T13:34:49.843Z,50.17
2017-09-04T13:36:24.728Z,44.83
2017-09-04T13:37:40.518Z,43.64
2017-09-04T13:38:52.210Z,38.70
2017-09-04T13:40:19.504Z,37.59
2017-09-04T13:41:43.911Z,38.53
2017-09-04T13:42:55.568Z,37.78
2017-09-04T13:44:22.324Z,39.39
2017-09-04T13:45:46.113Z,37.72
2017-09-04T13:46:57.625Z,38.40
2017-09-04T13:48:09.118Z,38.27
2017-09-04T13:49:20.706Z,38.41
2017-09-04T13:50:44.215Z,38.02
2017-09-04T13:52:15.183Z,38.89
2017-09-04T13:53:26.603Z,39.05
2017-09-04T13:54:47.431Z,40.94
2017-09-04T13:56:11.185Z,40.94
2017-09-04T13:57:32.127Z,42.87
2017-09-04T13:58:38.827Z,41.10
2017-09-04T13:59:49.754Z,42.25
2017-09-04T14:01:02.144Z,41.73
2017-09-04T14:02:14.047Z,40.68
2017-09-04T14:03:21.477Z,40.60
2017-09-04T14:04:43.828Z,39.54
2017-09-04T14:06:08.093Z,41.82
2017-09-04T14:07:30.414Z,41.79
2017-09-04T14:08:51.116Z,42.27
2017-09-04T14:10:02.762Z,41.56
2017-09-04T14:11:14.335Z,42.32
2017-09-04T14:12:26.155Z,43.96
2017-09-04T14:13:37.723Z,43.90
2017-09-04T14:14:44.752Z,44.13
2017-09-04T14:15:53.336Z,44.49
2017-09-04T14:17:02.823Z,44.25
2017-09-04T14:18:09.828Z,45.57
2017-09-04T14:19:16.720Z,45.44
2017-09-04T14:20:22.743Z,46.73
2017-09-04T14:21:28.761Z,45.87
2017-09-04T14:22:34.788Z,46.62
2017-09-04T14:23:41.518Z,44.94
2017-09-04T14:24:47.574Z,45.29
2017-09-04T14:25:53.724Z,45.48
2017-09-04T14:26:59.827Z,45.43
2017-09-04T14:28:05.827Z,45.00